PWSweather.com
Personal Weather Stations
Station Observations
MIDDLECKWX
Middle Creek, Prestonsburg, KY 41653

Middle CreekPrestonsburg, KY 41653

Lat: 37.652135, Lon: -82.829846

Elevation: 760

Station Type:

Latest ConditionsUpdated 5:49:36 PM EST Friday, Nov 17, 2017
Currently Today's Max Today's Min Today's Average
Temperature 45.5°F7.5°C 53.2°F11.8°C 31.1°F-0.5°C 40.4°F4.7°C
Dew Point 32.0°F0.0°C 32.9°F0.5°C 24.1°F-4.4°C 28.9°F-1.7°C
Winds Calm Calm Calm Calm - Calm Calm
Wind Gusts -- -- - -
Humidity 59% 77% 40% 65%
Pressure 30.02 in1016.6 mb 30.27 in1025.1 mb 30.02 in1016.6 mb -
Hour Temp Dew Point Humidity Winds Wind Gusts Pressure Precip Precip Rate Daily Precip Total
05:49 PM 45.5°F7.5°C 32.0°F0.0°C 59% Calm Calm -- 30.02 in1016.6 mb - 0.00 in0.0 mm 0.00 in0.0 mm
05:39 PM 46.0°F7.8°C 32.1°F0.1°C 58% Calm Calm -- 30.02 in1016.6 mb - 0.00 in0.0 mm 0.00 in0.0 mm
05:29 PM 46.9°F8.3°C 32.0°F0.0°C 56% Calm Calm -- 30.02 in1016.6 mb - 0.00 in0.0 mm 0.00 in0.0 mm
05:19 PM 48.0°F8.9°C 31.7°F-0.2°C 53% Calm Calm -- 30.03 in1016.9 mb - 0.00 in0.0 mm 0.00 in0.0 mm
05:09 PM 49.5°F9.7°C 32.1°F0.1°C 51% Calm Calm -- 30.02 in1016.6 mb - 0.00 in0.0 mm 0.00 in0.0 mm
04:59 PM 50.0°F10.0°C 31.1°F-0.5°C 48% Calm Calm -- 30.03 in1016.9 mb - 0.00 in0.0 mm 0.00 in0.0 mm
04:49 PM 50.9°F10.5°C 31.4°F-0.3°C 47% Calm Calm -- 30.03 in1016.9 mb - 0.00 in0.0 mm 0.00 in0.0 mm
04:40 PM 51.3°F10.7°C 31.2°F-0.4°C 46% Calm Calm -- 30.03 in1016.9 mb - 0.00 in0.0 mm 0.00 in0.0 mm
04:29 PM 52.2°F11.2°C 30.9°F-0.6°C 44% Calm Calm -- 30.04 in1017.3 mb - 0.00 in0.0 mm 0.00 in0.0 mm
04:19 PM 52.3°F11.3°C 30.5°F-0.8°C 43% Calm Calm -- 30.04 in1017.3 mb - 0.00 in0.0 mm 0.00 in0.0 mm
04:10 PM 53.1°F11.7°C 30.0°F-1.1°C 41% Calm Calm -- 30.04 in1017.3 mb - 0.00 in0.0 mm 0.00 in0.0 mm
03:59 PM 53.1°F11.7°C 29.4°F-1.4°C 40% Calm Calm -- 30.04 in1017.3 mb - 0.00 in0.0 mm 0.00 in0.0 mm
03:49 PM 53.1°F11.7°C 29.4°F-1.4°C 40% Calm Calm -- 30.05 in1017.6 mb - 0.00 in0.0 mm 0.00 in0.0 mm
03:39 PM 53.1°F11.7°C 30.0°F-1.1°C 41% Calm Calm -- 30.05 in1017.6 mb - 0.00 in0.0 mm 0.00 in0.0 mm
03:30 PM 53.2°F11.8°C 29.5°F-1.4°C 40% Calm Calm -- 30.06 in1017.9 mb - 0.00 in0.0 mm 0.00 in0.0 mm
03:20 PM 53.1°F11.7°C 29.4°F-1.4°C 40% Calm Calm -- 30.07 in1018.3 mb - 0.00 in0.0 mm 0.00 in0.0 mm
03:10 PM 53.1°F11.7°C 29.4°F-1.4°C 40% Calm Calm -- 30.08 in1018.6 mb - 0.00 in0.0 mm 0.00 in0.0 mm
03:00 PM 52.7°F11.5°C 29.6°F-1.3°C 41% Calm Calm -- 30.08 in1018.6 mb - 0.00 in0.0 mm 0.00 in0.0 mm
02:50 PM 52.5°F11.4°C 29.5°F-1.4°C 41% Calm Calm -- 30.10 in1019.3 mb - 0.00 in0.0 mm 0.00 in0.0 mm
02:40 PM 52.2°F11.2°C 29.7°F-1.3°C 42% Calm Calm -- 30.10 in1019.3 mb - 0.00 in0.0 mm 0.00 in0.0 mm
02:30 PM 51.8°F11.0°C 30.6°F-0.8°C 44% Calm Calm -- 30.10 in1019.3 mb - 0.00 in0.0 mm 0.00 in0.0 mm
02:20 PM 51.3°F10.7°C 30.6°F-0.8°C 45% Calm Calm -- 30.10 in1019.3 mb - 0.00 in0.0 mm 0.00 in0.0 mm
02:10 PM 51.3°F10.7°C 31.7°F-0.2°C 47% Calm Calm -- 30.10 in1019.3 mb - 0.00 in0.0 mm 0.00 in0.0 mm
02:00 PM 51.3°F10.7°C 31.7°F-0.2°C 47% Calm Calm -- 30.11 in1019.6 mb - 0.00 in0.0 mm 0.00 in0.0 mm
01:50 PM 50.7°F10.4°C 32.2°F0.1°C 49% Calm Calm -- 30.12 in1020.0 mb - 0.00 in0.0 mm 0.00 in0.0 mm
01:40 PM 50.0°F10.0°C 31.1°F-0.5°C 48% Calm Calm -- 30.12 in1020.0 mb - 0.00 in0.0 mm 0.00 in0.0 mm
01:30 PM 49.5°F9.7°C 31.6°F-0.2°C 50% Calm Calm -- 30.13 in1020.3 mb - 0.00 in0.0 mm 0.00 in0.0 mm
01:20 PM 49.1°F9.5°C 32.2°F0.1°C 52% Calm Calm -- 30.13 in1020.3 mb - 0.00 in0.0 mm 0.00 in0.0 mm
01:10 PM 48.6°F9.2°C 31.7°F-0.2°C 52% Calm Calm -- 30.14 in1020.7 mb - 0.00 in0.0 mm 0.00 in0.0 mm
01:00 PM 48.4°F9.1°C 32.9°F0.5°C 55% Calm Calm -- 30.14 in1020.7 mb - 0.00 in0.0 mm 0.00 in0.0 mm
12:50 PM 47.5°F8.6°C 31.6°F-0.2°C 54% Calm Calm -- 30.15 in1021.0 mb - 0.00 in0.0 mm 0.00 in0.0 mm
12:40 PM 46.8°F8.2°C 31.9°F-0.1°C 56% Calm Calm -- 30.16 in1021.3 mb - 0.00 in0.0 mm 0.00 in0.0 mm
12:30 PM 46.4°F8.0°C 31.5°F-0.3°C 56% Calm Calm -- 30.16 in1021.3 mb - 0.00 in0.0 mm 0.00 in0.0 mm
12:20 PM 45.9°F7.7°C 31.9°F-0.1°C 58% Calm Calm -- 30.16 in1021.3 mb - 0.00 in0.0 mm 0.00 in0.0 mm
12:10 PM 45.3°F7.4°C 31.8°F-0.1°C 59% Calm Calm -- 30.17 in1021.7 mb - 0.00 in0.0 mm 0.00 in0.0 mm
12:00 PM 44.4°F6.9°C 32.2°F0.1°C 62% Calm Calm -- 30.17 in1021.7 mb - 0.00 in0.0 mm 0.00 in0.0 mm
11:50 AM 43.3°F6.3°C 31.6°F-0.2°C 63% Calm Calm -- 30.18 in1022.0 mb - 0.00 in0.0 mm 0.00 in0.0 mm
11:40 AM 43.2°F6.2°C 31.8°F-0.1°C 64% Calm Calm -- 30.19 in1022.4 mb - 0.00 in0.0 mm 0.00 in0.0 mm
11:30 AM 42.4°F5.8°C 31.5°F-0.3°C 65% Calm Calm -- 30.19 in1022.4 mb - 0.00 in0.0 mm 0.00 in0.0 mm
11:20 AM 41.5°F5.3°C 31.0°F-0.6°C 66% Calm Calm -- 30.19 in1022.4 mb - 0.00 in0.0 mm 0.00 in0.0 mm
11:11 AM 41.2°F5.1°C 30.7°F-0.7°C 66% Calm Calm -- 30.20 in1022.7 mb - 0.00 in0.0 mm 0.00 in0.0 mm
11:01 AM 40.5°F4.7°C 30.7°F-0.7°C 68% Calm Calm -- 30.21 in1023.0 mb - 0.00 in0.0 mm 0.00 in0.0 mm
10:51 AM 39.9°F4.4°C 30.9°F-0.6°C 70% Calm Calm -- 30.21 in1023.0 mb - 0.00 in0.0 mm 0.00 in0.0 mm
10:40 AM 39.6°F4.2°C 30.2°F-1.0°C 69% Calm Calm -- 30.22 in1023.4 mb - 0.00 in0.0 mm 0.00 in0.0 mm
10:31 AM 39.2°F4.0°C 30.2°F-1.0°C 70% Calm Calm -- 30.22 in1023.4 mb - 0.00 in0.0 mm 0.00 in0.0 mm
10:21 AM 38.8°F3.8°C 30.2°F-1.0°C 71% Calm Calm -- 30.23 in1023.7 mb - 0.00 in0.0 mm 0.00 in0.0 mm
10:11 AM 38.5°F3.6°C 30.2°F-1.0°C 72% Calm Calm -- 30.23 in1023.7 mb - 0.00 in0.0 mm 0.00 in0.0 mm
10:01 AM 37.9°F3.3°C 30.1°F-1.1°C 73% Calm Calm -- 30.23 in1023.7 mb - 0.00 in0.0 mm 0.00 in0.0 mm
09:51 AM 37.6°F3.1°C 30.0°F-1.1°C 74% Calm Calm -- 30.24 in1024.0 mb - 0.00 in0.0 mm 0.00 in0.0 mm
09:41 AM 36.9°F2.7°C 29.7°F-1.3°C 75% Calm Calm -- 30.24 in1024.0 mb - 0.00 in0.0 mm 0.00 in0.0 mm
09:31 AM 35.8°F2.1°C 29.0°F-1.7°C 76% Calm Calm -- 30.25 in1024.4 mb - 0.00 in0.0 mm 0.00 in0.0 mm
09:21 AM 34.7°F1.5°C 27.6°F-2.4°C 75% Calm Calm -- 30.25 in1024.4 mb - 0.00 in0.0 mm 0.00 in0.0 mm
09:11 AM 34.0°F1.1°C 26.6°F-3.0°C 74% Calm Calm -- 30.24 in1024.0 mb - 0.00 in0.0 mm 0.00 in0.0 mm
09:01 AM 33.3°F0.7°C 25.5°F-3.6°C 73% Calm Calm -- 30.24 in1024.0 mb - 0.00 in0.0 mm 0.00 in0.0 mm
08:51 AM 32.5°F0.3°C 24.5°F-4.2°C 72% Calm Calm -- 30.24 in1024.0 mb - 0.00 in0.0 mm 0.00 in0.0 mm
08:41 AM 32.2°F0.1°C 24.2°F-4.3°C 72% Calm Calm -- 30.24 in1024.0 mb - 0.00 in0.0 mm 0.00 in0.0 mm
08:31 AM 31.6°F-0.2°C 24.3°F-4.3°C 74% Calm Calm -- 30.24 in1024.0 mb - 0.00 in0.0 mm 0.00 in0.0 mm
08:21 AM 31.5°F-0.3°C 24.4°F-4.2°C 75% Calm Calm -- 30.24 in1024.0 mb - 0.00 in0.0 mm 0.00 in0.0 mm
08:11 AM 31.3°F-0.4°C 24.3°F-4.3°C 75% Calm Calm -- 30.24 in1024.0 mb - 0.00 in0.0 mm 0.00 in0.0 mm
08:01 AM 31.1°F-0.5°C 24.1°F-4.4°C 75% Calm Calm -- 30.24 in1024.0 mb - 0.00 in0.0 mm 0.00 in0.0 mm
07:51 AM 31.1°F-0.5°C 24.1°F-4.4°C 75% Calm Calm -- 30.23 in1023.7 mb - 0.00 in0.0 mm 0.00 in0.0 mm
07:31 AM 31.1°F-0.5°C 24.7°F-4.1°C 77% Calm Calm -- 30.24 in1024.0 mb - 0.00 in0.0 mm 0.00 in0.0 mm
07:22 AM 31.5°F-0.3°C 25.1°F-3.8°C 77% Calm Calm -- 30.23 in1023.7 mb - 0.00 in0.0 mm 0.00 in0.0 mm
07:12 AM 31.6°F-0.2°C 25.3°F-3.7°C 77% Calm Calm -- 30.24 in1024.0 mb - 0.00 in0.0 mm 0.00 in0.0 mm
07:02 AM 32.0°F0.0°C 25.6°F-3.6°C 77% Calm Calm -- 30.25 in1024.4 mb - 0.00 in0.0 mm 0.00 in0.0 mm
06:52 AM 32.7°F0.4°C 26.3°F-3.2°C 77% Calm Calm -- 30.24 in1024.0 mb - 0.00 in0.0 mm 0.00 in0.0 mm
06:41 AM 33.4°F0.8°C 26.7°F-2.9°C 76% Calm Calm -- 30.25 in1024.4 mb - 0.00 in0.0 mm 0.00 in0.0 mm
06:32 AM 33.4°F0.8°C 26.7°F-2.9°C 76% Calm Calm -- 30.26 in1024.7 mb - 0.00 in0.0 mm 0.00 in0.0 mm
06:22 AM 34.0°F1.1°C 27.2°F-2.7°C 76% Calm Calm -- 30.25 in1024.4 mb - 0.00 in0.0 mm 0.00 in0.0 mm
06:12 AM 34.3°F1.3°C 27.2°F-2.7°C 75% Calm Calm -- 30.25 in1024.4 mb - 0.00 in0.0 mm 0.00 in0.0 mm
06:02 AM 35.1°F1.7°C 27.9°F-2.3°C 75% Calm Calm -- 30.25 in1024.4 mb - 0.00 in0.0 mm 0.00 in0.0 mm
05:52 AM 35.1°F1.7°C 27.9°F-2.3°C 75% Calm Calm -- 30.25 in1024.4 mb - 0.00 in0.0 mm 0.00 in0.0 mm
05:42 AM 35.2°F1.8°C 28.1°F-2.2°C 75% Calm Calm -- 30.25 in1024.4 mb - 0.00 in0.0 mm 0.00 in0.0 mm
05:32 AM 35.2°F1.8°C 28.1°F-2.2°C 75% Calm Calm -- 30.25 in1024.4 mb - 0.00 in0.0 mm 0.00 in0.0 mm
05:22 AM 35.2°F1.8°C 27.8°F-2.3°C 74% Calm Calm -- 30.24 in1024.0 mb - 0.00 in0.0 mm 0.00 in0.0 mm
05:12 AM 35.2°F1.8°C 27.8°F-2.3°C 74% Calm Calm -- 30.25 in1024.4 mb - 0.00 in0.0 mm 0.00 in0.0 mm
05:02 AM 35.2°F1.8°C 27.8°F-2.3°C 74% Calm Calm -- 30.24 in1024.0 mb - 0.00 in0.0 mm 0.00 in0.0 mm
04:52 AM 35.2°F1.8°C 27.8°F-2.3°C 74% Calm Calm -- 30.24 in1024.0 mb - 0.00 in0.0 mm 0.00 in0.0 mm
04:42 AM 35.2°F1.8°C 27.4°F-2.6°C 73% Calm Calm -- 30.24 in1024.0 mb - 0.00 in0.0 mm 0.00 in0.0 mm
04:32 AM 35.2°F1.8°C 27.4°F-2.6°C 73% Calm Calm -- 30.24 in1024.0 mb - 0.00 in0.0 mm 0.00 in0.0 mm
04:22 AM 35.4°F1.9°C 28.0°F-2.2°C 74% Calm Calm -- 30.24 in1024.0 mb - 0.00 in0.0 mm 0.00 in0.0 mm
04:12 AM 35.6°F2.0°C 27.8°F-2.3°C 73% Calm Calm -- 30.25 in1024.4 mb - 0.00 in0.0 mm 0.00 in0.0 mm
04:02 AM 35.6°F2.0°C 27.8°F-2.3°C 73% Calm Calm -- 30.25 in1024.4 mb - 0.00 in0.0 mm 0.00 in0.0 mm
03:52 AM 35.6°F2.0°C 28.1°F-2.2°C 74% Calm Calm -- 30.25 in1024.4 mb - 0.00 in0.0 mm 0.00 in0.0 mm
03:42 AM 35.6°F2.0°C 27.8°F-2.3°C 73% Calm Calm -- 30.25 in1024.4 mb - 0.00 in0.0 mm 0.00 in0.0 mm
03:32 AM 35.8°F2.1°C 28.3°F-2.1°C 74% Calm Calm -- 30.26 in1024.7 mb - 0.00 in0.0 mm 0.00 in0.0 mm
03:22 AM 35.8°F2.1°C 28.3°F-2.1°C 74% Calm Calm -- 30.27 in1025.1 mb - 0.00 in0.0 mm 0.00 in0.0 mm
03:13 AM 35.8°F2.1°C 28.0°F-2.2°C 73% Calm Calm -- 30.27 in1025.1 mb - 0.00 in0.0 mm 0.00 in0.0 mm
03:02 AM 35.8°F2.1°C 28.0°F-2.2°C 73% Calm Calm -- 30.27 in1025.1 mb - 0.00 in0.0 mm 0.00 in0.0 mm
02:52 AM 36.0°F2.2°C 28.1°F-2.2°C 73% Calm Calm -- 30.27 in1025.1 mb - 0.00 in0.0 mm 0.00 in0.0 mm
02:42 AM 35.8°F2.1°C 28.0°F-2.2°C 73% Calm Calm -- 30.27 in1025.1 mb - 0.00 in0.0 mm 0.00 in0.0 mm
02:32 AM 35.6°F2.0°C 27.8°F-2.3°C 73% Calm Calm -- 30.27 in1025.1 mb - 0.00 in0.0 mm 0.00 in0.0 mm
02:22 AM 35.6°F2.0°C 28.1°F-2.2°C 74% Calm Calm -- 30.27 in1025.1 mb - 0.00 in0.0 mm 0.00 in0.0 mm
02:13 AM 35.6°F2.0°C 27.8°F-2.3°C 73% Calm Calm -- 30.26 in1024.7 mb - 0.00 in0.0 mm 0.00 in0.0 mm
02:03 AM 35.6°F2.0°C 27.8°F-2.3°C 73% Calm Calm -- 30.26 in1024.7 mb - 0.00 in0.0 mm 0.00 in0.0 mm
01:53 AM 35.6°F2.0°C 27.8°F-2.3°C 73% Calm Calm -- 30.26 in1024.7 mb - 0.00 in0.0 mm 0.00 in0.0 mm
01:42 AM 35.4°F1.9°C 28.0°F-2.2°C 74% Calm Calm -- 30.26 in1024.7 mb - 0.00 in0.0 mm 0.00 in0.0 mm
01:33 AM 35.2°F1.8°C 27.8°F-2.3°C 74% Calm Calm -- 30.25 in1024.4 mb - 0.00 in0.0 mm 0.00 in0.0 mm
01:23 AM 35.2°F1.8°C 27.8°F-2.3°C 74% Calm Calm -- 30.25 in1024.4 mb - 0.00 in0.0 mm 0.00 in0.0 mm
01:13 AM 35.2°F1.8°C 28.1°F-2.2°C 75% Calm Calm -- 30.26 in1024.7 mb - 0.00 in0.0 mm 0.00 in0.0 mm
01:03 AM 35.6°F2.0°C 28.5°F-1.9°C 75% Calm Calm -- 30.26 in1024.7 mb - 0.00 in0.0 mm 0.00 in0.0 mm
12:53 AM 35.6°F2.0°C 28.1°F-2.2°C 74% Calm Calm -- 30.26 in1024.7 mb - 0.00 in0.0 mm 0.00 in0.0 mm
12:43 AM 35.2°F1.8°C 27.8°F-2.3°C 74% Calm Calm -- 30.26 in1024.7 mb - 0.00 in0.0 mm 0.00 in0.0 mm
12:33 AM 35.2°F1.8°C 27.8°F-2.3°C 74% Calm Calm -- 30.25 in1024.4 mb - 0.00 in0.0 mm 0.00 in0.0 mm
12:23 AM 35.2°F1.8°C 27.8°F-2.3°C 74% Calm Calm -- 30.26 in1024.7 mb - 0.00 in0.0 mm 0.00 in0.0 mm
12:13 AM 35.2°F1.8°C 27.8°F-2.3°C 74% Calm Calm -- 30.25 in1024.4 mb - 0.00 in0.0 mm 0.00 in0.0 mm
12:03 AM 35.2°F1.8°C 27.8°F-2.3°C 74% Calm Calm -- 30.25 in1024.4 mb - 0.00 in0.0 mm 0.00 in0.0 mm